createdAt,value
2022-11-24T00:00:45.226Z,-9.50
2022-11-24T00:04:01.112Z,-9.45
2022-11-24T00:07:04.804Z,-9.42
2022-11-24T00:10:08.083Z,-9.27
2022-11-24T00:13:11.814Z,-9.28
2022-11-24T00:16:16.335Z,-9.31
2022-11-24T00:19:19.860Z,-9.27
2022-11-24T00:22:23.895Z,-9.17
2022-11-24T00:25:27.799Z,-9.20
2022-11-24T00:28:31.306Z,-9.16
2022-11-24T00:31:37.907Z,-9.02
2022-11-24T00:34:42.981Z,-9.00
2022-11-24T00:37:46.255Z,-9.00
2022-11-24T00:40:50.255Z,-9.06
2022-11-24T00:43:54.252Z,-9.11
2022-11-24T00:46:58.257Z,-9.12
2022-11-24T00:50:01.823Z,-9.15
2022-11-24T00:53:05.867Z,-9.12
2022-11-24T00:56:11.076Z,-9.09
2022-11-24T00:59:14.971Z,-9.01
2022-11-24T01:02:18.608Z,-8.90
2022-11-24T01:05:22.651Z,-8.75
2022-11-24T01:08:26.267Z,-8.69
2022-11-24T01:11:56.059Z,-8.57
2022-11-24T01:14:59.783Z,-8.67
2022-11-24T01:18:03.395Z,-8.74
2022-11-24T01:21:10.013Z,-8.75
2022-11-24T01:24:14.914Z,-8.61
2022-11-24T01:27:18.544Z,-8.48
2022-11-24T01:30:23.897Z,-8.49
2022-11-24T01:33:27.756Z,-8.46
2022-11-24T01:36:31.826Z,-8.42
2022-11-24T01:39:35.448Z,-8.32
2022-11-24T01:42:50.073Z,-8.28
2022-11-24T01:45:54.320Z,-8.25
2022-11-24T01:49:27.790Z,-8.16
2022-11-24T01:52:40.262Z,-8.09
2022-11-24T01:55:43.317Z,-8.06
2022-11-24T01:58:48.403Z,-7.97
2022-11-24T02:01:53.493Z,-7.84
2022-11-24T02:05:02.361Z,-7.76
2022-11-24T02:08:08.610Z,-7.87
2022-11-24T02:11:11.676Z,-7.87
2022-11-24T02:14:18.678Z,-7.74
2022-11-24T02:17:22.492Z,-7.61
2022-11-24T02:20:26.991Z,-7.55
2022-11-24T02:23:45.069Z,-7.52
2022-11-24T02:26:50.101Z,-7.39
2022-11-24T02:29:53.899Z,-7.36
2022-11-24T02:32:57.516Z,-7.32
2022-11-24T02:36:01.179Z,-7.26
2022-11-24T02:39:04.522Z,-7.16
2022-11-24T02:42:12.598Z,-7.06
2022-11-24T02:45:17.602Z,-6.95
2022-11-24T02:48:21.203Z,-6.97
2022-11-24T02:51:25.268Z,-6.99
2022-11-24T02:54:29.296Z,-6.94
2022-11-24T02:57:33.185Z,-6.83
2022-11-24T03:00:36.508Z,-6.78
2022-11-24T03:03:40.728Z,-6.68
2022-11-24T03:06:44.261Z,-6.44
2022-11-24T03:09:48.164Z,-6.26
2022-11-24T03:12:51.790Z,-6.15
2022-11-24T03:15:55.853Z,-5.96
2022-11-24T03:19:00.148Z,-5.97
2022-11-24T03:22:05.090Z,-5.53
2022-11-24T03:25:09.274Z,-5.42
2022-11-24T03:28:13.254Z,-5.56
2022-11-24T03:31:17.160Z,-5.49
2022-11-24T03:34:21.367Z,-5.54
2022-11-24T03:37:24.599Z,-5.52
2022-11-24T03:40:28.567Z,-5.65
2022-11-24T03:43:33.410Z,-5.57
2022-11-24T03:46:37.585Z,-5.50
2022-11-24T03:49:42.047Z,-5.43
2022-11-24T03:52:46.063Z,-5.27
2022-11-24T03:55:49.594Z,-5.14
2022-11-24T03:58:53.498Z,-4.82
2022-11-24T04:01:57.228Z,-4.88
2022-11-24T04:05:01.555Z,-5.11
2022-11-24T04:08:06.361Z,-4.87
2022-11-24T04:11:30.050Z,-4.80
2022-11-24T04:14:33.821Z,-4.95
2022-11-24T04:17:38.086Z,-4.92
2022-11-24T04:20:42.713Z,-5.00
2022-11-24T04:23:47.017Z,-4.69
2022-11-24T04:26:50.293Z,-4.20
2022-11-24T04:29:54.264Z,-4.06
2022-11-24T04:32:57.958Z,-3.91
2022-11-24T04:36:01.505Z,-3.72
2022-11-24T04:39:25.523Z,-3.60
2022-11-24T04:42:29.050Z,-3.91
2022-11-24T04:45:32.254Z,-4.09
2022-11-24T04:48:36.199Z,-3.83
2022-11-24T04:51:40.615Z,-4.19
2022-11-24T04:54:44.702Z,-4.31
2022-11-24T04:57:48.297Z,-4.51
2022-11-24T05:00:52.248Z,-4.43
2022-11-24T05:03:56.511Z,-4.07
2022-11-24T05:07:00.057Z,-4.20
2022-11-24T05:10:22.100Z,-4.18
2022-11-24T05:13:26.037Z,-4.35
2022-11-24T05:16:29.750Z,-4.54
2022-11-24T05:19:34.286Z,-4.67
2022-11-24T05:22:37.901Z,-4.60
2022-11-24T05:25:47.327Z,-4.78
2022-11-24T05:28:51.382Z,-4.45
2022-11-24T05:31:54.758Z,-4.25
2022-11-24T05:34:58.901Z,-4.51
2022-11-24T05:38:03.103Z,-4.70
2022-11-24T05:41:07.014Z,-4.77
2022-11-24T05:44:10.973Z,-4.46
2022-11-24T05:47:14.524Z,-4.11
2022-11-24T05:50:20.786Z,-4.15
2022-11-24T05:53:24.505Z,-4.57
2022-11-24T05:56:28.103Z,-4.81
2022-11-24T05:59:31.450Z,-4.97
2022-11-24T06:02:35.802Z,-4.92
2022-11-24T06:05:39.382Z,-4.69
2022-11-24T06:08:43.353Z,-4.81
2022-11-24T06:11:48.755Z,-5.05
2022-11-24T06:14:52.425Z,-5.33
2022-11-24T06:17:56.905Z,-5.28
2022-11-24T06:21:10.677Z,-5.28
2022-11-24T06:24:15.324Z,-5.37
2022-11-24T06:27:19.833Z,-5.49
2022-11-24T06:30:23.407Z,-5.59
2022-11-24T06:33:27.289Z,-5.59
2022-11-24T06:36:30.831Z,-5.49
2022-11-24T06:39:34.799Z,-5.50
2022-11-24T06:42:38.815Z,-5.29
2022-11-24T06:45:42.754Z,-5.15
2022-11-24T06:48:45.963Z,-5.14
2022-11-24T06:51:50.035Z,-5.36
2022-11-24T06:54:54.245Z,-5.50
2022-11-24T06:57:58.144Z,-5.50
2022-11-24T07:01:01.738Z,-5.47
2022-11-24T07:04:05.743Z,-5.47
2022-11-24T07:07:09.359Z,-5.69
2022-11-24T07:10:13.270Z,-5.78
2022-11-24T07:13:16.635Z,-5.88
2022-11-24T07:16:22.945Z,-5.90
2022-11-24T07:19:25.878Z,-5.97
2022-11-24T07:22:30.199Z,-6.03
2022-11-24T07:25:34.208Z,-6.16
2022-11-24T07:28:38.748Z,-6.15
2022-11-24T07:31:43.055Z,-6.19
2022-11-24T07:34:47.137Z,-6.32
2022-11-24T07:37:50.266Z,-6.37
2022-11-24T07:40:53.192Z,-6.31
2022-11-24T07:43:57.060Z,-6.44
2022-11-24T07:47:00.947Z,-6.59
2022-11-24T07:50:04.588Z,-6.70
2022-11-24T07:53:08.544Z,-6.78
2022-11-24T07:56:13.099Z,-6.86
2022-11-24T07:59:16.507Z,-6.91
2022-11-24T08:02:20.169Z,-6.96
2022-11-24T08:05:23.977Z,-6.94
2022-11-24T08:08:27.875Z,-6.95
2022-11-24T08:11:33.791Z,-7.09
2022-11-24T08:14:36.921Z,-7.20
2022-11-24T08:17:40.990Z,-7.20
2022-11-24T08:20:44.176Z,-7.20
2022-11-24T08:23:47.707Z,-7.17
2022-11-24T08:26:51.362Z,-7.28
2022-11-24T08:29:55.395Z,-7.29
2022-11-24T08:33:02.246Z,-7.32
2022-11-24T08:36:08.782Z,-7.38
2022-11-24T08:39:12.678Z,-7.37
2022-11-24T08:42:17.067Z,-7.43
2022-11-24T08:45:22.479Z,-7.61
2022-11-24T08:48:27.236Z,-7.63
2022-11-24T08:51:30.796Z,-7.67
2022-11-24T08:54:35.066Z,-7.74
2022-11-24T08:57:38.879Z,-7.77
2022-11-24T09:00:42.885Z,-7.76
2022-11-24T09:03:51.100Z,-7.83
2022-11-24T09:06:55.333Z,-7.95
2022-11-24T09:09:58.835Z,-8.09
2022-11-24T09:13:03.113Z,-8.16
2022-11-24T09:16:12.849Z,-8.20
2022-11-24T09:19:16.689Z,-8.36
2022-11-24T09:22:20.228Z,-8.51
2022-11-24T09:25:26.922Z,-8.60
2022-11-24T09:28:30.106Z,-8.56
2022-11-24T09:31:36.674Z,-8.75
2022-11-24T09:34:40.196Z,-8.74
2022-11-24T09:37:45.659Z,-8.71
2022-11-24T09:40:50.541Z,-8.77
2022-11-24T09:44:04.270Z,-8.80
2022-11-24T09:47:13.242Z,-8.84
2022-11-24T09:50:43.404Z,-8.73
2022-11-24T09:54:08.970Z,-8.96
2022-11-24T09:57:14.631Z,-8.93
2022-11-24T10:00:18.499Z,-8.84
2022-11-24T10:03:51.694Z,-8.96
2022-11-24T10:07:12.556Z,-8.95
2022-11-24T10:10:35.593Z,-9.12
2022-11-24T10:14:21.339Z,-9.21
2022-11-24T10:17:52.211Z,-9.15
2022-11-24T10:21:28.871Z,-9.26
2022-11-24T10:24:52.849Z,-9.32
2022-11-24T10:28:01.022Z,-9.26
2022-11-24T10:31:24.037Z,-9.26
2022-11-24T10:34:35.387Z,-9.38
2022-11-24T10:37:48.591Z,-9.35
2022-11-24T10:40:58.081Z,-9.41
2022-11-24T10:44:02.017Z,-9.53
2022-11-24T10:47:13.420Z,-9.51
2022-11-24T10:50:19.946Z,-9.45
2022-11-24T10:53:32.481Z,-9.45
2022-11-24T10:56:43.063Z,-9.47
2022-11-24T10:59:47.240Z,-9.46
2022-11-24T11:03:10.562Z,-9.46
2022-11-24T11:06:25.312Z,-9.50
2022-11-24T11:09:28.096Z,-9.64
2022-11-24T11:12:46.873Z,-9.68
2022-11-24T11:15:50.459Z,-9.75
2022-11-24T11:18:53.956Z,-9.78
2022-11-24T11:22:27.699Z,-9.90
2022-11-24T11:25:36.155Z,-9.96
2022-11-24T11:28:39.655Z,-9.99
2022-11-24T11:34:01.103Z,-10.12
2022-11-24T11:35:06.115Z,-10.16
2022-11-24T11:38:11.762Z,-10.14
2022-11-24T11:41:22.672Z,-10.27
2022-11-24T11:44:39.239Z,-10.36
2022-11-24T11:47:55.253Z,-10.44
2022-11-24T11:51:23.680Z,-10.45
2022-11-24T11:54:49.350Z,-10.43
2022-11-24T11:58:14.512Z,-10.44
2022-11-24T12:01:55.187Z,-10.53
2022-11-24T12:05:01.825Z,-10.56
2022-11-24T12:08:56.019Z,-10.49
2022-11-24T12:12:33.853Z,-10.48
2022-11-24T12:15:49.112Z,-10.57
2022-11-24T12:18:58.872Z,-10.63
2022-11-24T12:22:14.775Z,-10.57
2022-11-24T12:25:42.189Z,-10.46
2022-11-24T12:28:56.478Z,-10.52
2022-11-24T12:32:24.960Z,-10.48
2022-11-24T12:35:41.670Z,-10.39
2022-11-24T12:39:11.524Z,-10.48
2022-11-24T12:42:39.736Z,-10.40
2022-11-24T12:46:01.328Z,-10.17
2022-11-24T12:49:11.078Z,-10.19
2022-11-24T12:52:26.645Z,-10.04
2022-11-24T12:55:33.104Z,-9.95
2022-11-24T12:58:36.512Z,-10.04
2022-11-24T13:02:00.412Z,-10.08
2022-11-24T13:05:25.735Z,-10.12
2022-11-24T13:08:52.984Z,-10.05
2022-11-24T13:12:15.978Z,-10.00
2022-11-24T13:15:44.718Z,-9.88
2022-11-24T13:18:53.317Z,-9.76
2022-11-24T13:22:02.811Z,-9.95
2022-11-24T13:25:16.641Z,-9.95
2022-11-24T13:29:06.147Z,-10.00
2022-11-24T13:32:16.092Z,-10.05
2022-11-24T13:35:19.085Z,-10.21
2022-11-24T13:38:42.060Z,-10.16
2022-11-24T13:41:51.425Z,-10.20
2022-11-24T13:44:57.591Z,-10.16
2022-11-24T13:48:01.289Z,-10.08
2022-11-24T13:51:10.463Z,-10.02
2022-11-24T13:54:15.740Z,-9.99
2022-11-24T13:57:40.528Z,-9.99
2022-11-24T14:01:13.086Z,-10.12
2022-11-24T14:04:31.836Z,-10.18
2022-11-24T14:07:37.065Z,-10.15
2022-11-24T14:10:43.195Z,-10.21
2022-11-24T14:13:47.121Z,-10.33
2022-11-24T14:17:28.114Z,-10.45
2022-11-24T14:20:31.959Z,-10.46
2022-11-24T14:23:34.833Z,-10.53
2022-11-24T14:26:40.935Z,-10.44
2022-11-24T14:29:58.537Z,-10.42
2022-11-24T14:33:04.301Z,-10.39
2022-11-24T14:36:18.184Z,-10.34
2022-11-24T14:39:26.317Z,-10.39
2022-11-24T14:42:29.539Z,-10.45
2022-11-24T14:45:33.670Z,-10.41
2022-11-24T14:48:40.764Z,-10.39
2022-11-24T14:51:46.061Z,-10.44
2022-11-24T14:54:54.969Z,-10.57
2022-11-24T14:57:58.699Z,-10.59
2022-11-24T15:01:33.520Z,-10.57
2022-11-24T15:05:04.525Z,-10.53
2022-11-24T15:08:13.853Z,-10.42
2022-11-24T15:11:17.616Z,-10.34
2022-11-24T15:14:44.386Z,-10.38
2022-11-24T15:17:56.844Z,-10.38
2022-11-24T15:21:00.659Z,-10.41
2022-11-24T15:24:14.864Z,-10.57
2022-11-24T15:27:18.706Z,-10.61
2022-11-24T15:30:22.303Z,-10.72
2022-11-24T15:33:25.269Z,-10.62
2022-11-24T15:36:28.372Z,-10.57
2022-11-24T15:39:31.874Z,-10.60
2022-11-24T15:42:34.736Z,-10.58
2022-11-24T15:45:38.265Z,-10.57
2022-11-24T15:48:41.197Z,-10.64
2022-11-24T15:51:46.358Z,-10.64
2022-11-24T15:54:53.477Z,-10.64
2022-11-24T15:57:56.813Z,-10.68
2022-11-24T16:01:00.212Z,-10.61
2022-11-24T16:04:03.627Z,-10.55
2022-11-24T16:07:07.672Z,-10.65
2022-11-24T16:10:35.882Z,-10.70
2022-11-24T16:13:39.387Z,-10.73
2022-11-24T16:16:42.903Z,-10.87
2022-11-24T16:19:45.822Z,-10.69
2022-11-24T16:22:48.794Z,-10.79
2022-11-24T16:25:51.744Z,-10.91
2022-11-24T16:28:54.661Z,-10.98
2022-11-24T16:31:58.582Z,-10.91
2022-11-24T16:35:01.458Z,-11.03
2022-11-24T16:38:04.446Z,-10.94
2022-11-24T16:41:07.878Z,-10.83
2022-11-24T16:44:11.172Z,-10.78
2022-11-24T16:47:14.176Z,-10.75
2022-11-24T16:50:17.368Z,-10.83
2022-11-24T16:53:21.063Z,-10.87
2022-11-24T16:56:24.824Z,-10.87
2022-11-24T16:59:27.757Z,-10.95
2022-11-24T17:02:31.797Z,-10.88
2022-11-24T17:05:35.351Z,-10.90
2022-11-24T17:08:40.383Z,-10.91
2022-11-24T17:11:44.110Z,-10.93
2022-11-24T17:15:09.341Z,-10.92
2022-11-24T17:18:24.599Z,-10.87
2022-11-24T17:21:28.917Z,-10.65
2022-11-24T17:24:32.529Z,-10.59
2022-11-24T17:27:35.467Z,-10.66
2022-11-24T17:30:39.079Z,-10.63
2022-11-24T17:33:42.622Z,-10.50
2022-11-24T17:36:46.594Z,-10.42
2022-11-24T17:40:12.626Z,-10.45
2022-11-24T17:43:12.314Z,-10.57
2022-11-24T17:46:15.761Z,-10.63
2022-11-24T17:49:21.593Z,-10.62
2022-11-24T17:52:26.713Z,-10.64
2022-11-24T17:55:30.492Z,-10.80
2022-11-24T17:58:39.718Z,-10.88
2022-11-24T18:01:45.531Z,-10.93
2022-11-24T18:04:48.365Z,-11.00
2022-11-24T18:07:51.596Z,-11.09
2022-11-24T18:10:55.096Z,-11.28
2022-11-24T18:14:02.143Z,-11.41
2022-11-24T18:17:05.548Z,-11.44
2022-11-24T18:20:09.889Z,-11.47
2022-11-24T18:23:13.572Z,-11.56
2022-11-24T18:26:18.158Z,-11.62
2022-11-24T18:29:22.047Z,-11.66
2022-11-24T18:32:25.572Z,-11.80
2022-11-24T18:35:28.379Z,-11.86
2022-11-24T18:38:31.664Z,-11.86
2022-11-24T18:41:35.035Z,-11.85
2022-11-24T18:44:38.608Z,-11.96
2022-11-24T18:47:41.489Z,-12.03
2022-11-24T18:50:44.737Z,-11.98
2022-11-24T18:53:53.841Z,-12.09
2022-11-24T18:57:02.958Z,-12.13
2022-11-24T19:00:08.171Z,-12.16
2022-11-24T19:03:11.371Z,-12.21
2022-11-24T19:06:22.647Z,-12.21
2022-11-24T19:09:26.392Z,-12.22
2022-11-24T19:12:29.422Z,-12.25
2022-11-24T19:15:35.294Z,-12.30
2022-11-24T19:18:39.012Z,-12.33
2022-11-24T19:21:42.101Z,-12.22
2022-11-24T19:24:47.983Z,-12.28
2022-11-24T19:27:50.772Z,-12.33
2022-11-24T19:30:54.048Z,-12.39
2022-11-24T19:33:58.870Z,-12.48
2022-11-24T19:37:02.009Z,-12.43
2022-11-24T19:40:06.186Z,-12.37
2022-11-24T19:43:09.107Z,-12.57
2022-11-24T19:46:15.117Z,-12.79
2022-11-24T19:49:19.164Z,-12.63
2022-11-24T19:52:23.647Z,-12.46
2022-11-24T19:55:26.959Z,-12.47
2022-11-24T19:58:30.799Z,-12.55
2022-11-24T20:01:38.239Z,-12.59
2022-11-24T20:04:43.551Z,-12.59
2022-11-24T20:07:47.598Z,-12.63
2022-11-24T20:10:51.275Z,-12.70
2022-11-24T20:13:55.350Z,-12.57
2022-11-24T20:16:59.273Z,-12.45
2022-11-24T20:20:02.132Z,-12.46
2022-11-24T20:23:05.610Z,-12.46
2022-11-24T20:26:14.689Z,-12.37
2022-11-24T20:29:18.141Z,-12.37
2022-11-24T20:32:21.644Z,-12.31
2022-11-24T20:35:25.591Z,-12.45
2022-11-24T20:38:31.599Z,-12.45
2022-11-24T20:41:36.647Z,-12.27
2022-11-24T20:44:39.688Z,-12.12
2022-11-24T20:47:42.603Z,-12.04
2022-11-24T20:50:51.118Z,-12.07
2022-11-24T20:53:58.434Z,-12.05
2022-11-24T20:57:02.048Z,-12.03
2022-11-24T21:00:06.728Z,-12.01
2022-11-24T21:03:10.231Z,-12.10
2022-11-24T21:06:15.198Z,-12.05
2022-11-24T21:09:19.851Z,-12.00
2022-11-24T21:12:23.227Z,-11.99
2022-11-24T21:15:26.774Z,-11.92
2022-11-24T21:18:30.691Z,-11.90
2022-11-24T21:21:35.942Z,-11.73
2022-11-24T21:24:39.103Z,-11.58
2022-11-24T21:27:41.867Z,-11.52
2022-11-24T21:30:45.020Z,-11.41
2022-11-24T21:33:50.808Z,-11.27
2022-11-24T21:36:53.736Z,-11.18
2022-11-24T21:39:56.868Z,-11.14
2022-11-24T21:43:00.211Z,-10.98
2022-11-24T21:46:11.801Z,-10.81
2022-11-24T21:49:15.467Z,-10.73
2022-11-24T21:52:19.241Z,-10.65
2022-11-24T21:55:22.413Z,-10.66
2022-11-24T21:58:26.886Z,-10.65
2022-11-24T22:01:30.864Z,-10.62
2022-11-24T22:04:34.676Z,-10.65
2022-11-24T22:07:38.238Z,-10.67
2022-11-24T22:10:41.100Z,-10.57
2022-11-24T22:13:45.164Z,-10.55
2022-11-24T22:16:48.072Z,-10.48
2022-11-24T22:19:51.288Z,-10.48
2022-11-24T22:22:54.914Z,-10.34
2022-11-24T22:26:03.787Z,-10.31
2022-11-24T22:29:08.266Z,-10.32
2022-11-24T22:32:12.388Z,-10.37
2022-11-24T22:35:15.652Z,-10.35
2022-11-24T22:38:18.928Z,-10.27
2022-11-24T22:41:22.747Z,-10.31
2022-11-24T22:44:26.746Z,-10.27
2022-11-24T22:47:30.618Z,-10.16
2022-11-24T22:50:33.562Z,-10.09
2022-11-24T22:53:36.927Z,-10.10
2022-11-24T22:56:39.798Z,-10.12
2022-11-24T22:59:42.593Z,-10.08
2022-11-24T23:02:45.413Z,-10.00
2022-11-24T23:05:48.947Z,-9.87
2022-11-24T23:08:52.935Z,-9.81
2022-11-24T23:11:56.624Z,-9.78
2022-11-24T23:14:59.445Z,-9.87
2022-11-24T23:18:03.030Z,-9.84
2022-11-24T23:21:16.982Z,-9.76
2022-11-24T23:24:20.286Z,-9.74
2022-11-24T23:27:23.763Z,-9.82
2022-11-24T23:30:26.689Z,-9.89
2022-11-24T23:33:30.022Z,-9.84
2022-11-24T23:36:34.433Z,-9.83
2022-11-24T23:39:37.291Z,-9.71
2022-11-24T23:42:40.578Z,-9.73
2022-11-24T23:45:43.480Z,-9.65
2022-11-24T23:48:46.611Z,-9.72
2022-11-24T23:51:50.201Z,-9.68
2022-11-24T23:54:53.008Z,-9.80
2022-11-24T23:57:55.831Z,-9.88
